Terminal Aerodrome Forecast
Issued by NWS

Home | Current Version | Previous Version | Graphics & Text | Print | Product List | Glossary On
Versions: 1 2 3 4 5 6 7 8 9 10 11 12 13 14 15 16 17 18 19
000
FTUS43 KICT 281120
TAFSLN
TAF
KSLN 281120Z 2812/2912 18014KT P6SM SCT250
     FM281530 19017G26KT P6SM SCT250
     FM282200 21015KT P6SM VCTS SCT080CB
     FM290200 36010KT P6SM VCTS BKN080CB
     FM290700 02010KT P6SM SCT100 BKN250=

USA.gov is the U.S. government's official web portal to all federal, state and local government web resources and services.